ZWWW/URC METAR and TAF weather

Enter ICAO airport designator
Station Type Date Time Source
ZWWW METAR 2019/08/17 10:30 UTC NOAA

ZWWW 171030Z 30009MPS CAVOK 23/14 Q1009 NOSIG


Station Type Date Time Source
ZWWW Decoded METAR 2019/08/17 10:30 UTC NOAA

Station name not available
Aug 17, 2019 - 06:30 AM EDT / 2019.08.17 1030 UTC
Wind: from the WNW (300 degrees) at 20 MPH (17 KT):0
Visibility: greater than 7 mile(s):0
Temperature: 73 F (23 C)
Dew Point: 57 F (14 C)
Relative Humidity: 56%
Pressure (altimeter): 29.80 in. Hg (1009 hPa)
ob: ZWWW 171030Z 30009MPS CAVOK 23/14 Q1009 NOSIG
cycle: 10

Station Type Date Time Source
ZWWW TAF 2019/08/17 12:03 UTC NOAA

TAF ZWWW 170902Z 1712/1812 30004G09MPS CAVOK TX27/1809Z TN18/1723Z
BECMG 1718/1719 9999 -SHRA BKN040
BECMG 1802/1803 36004MPS CAVOK

Example: see airport list